sensor_id;sensor_type;location;lat;lon;timestamp;temperature;humidity
16970;DHT22;8601;48.718;8.992;2023-03-14T00:01:09;9.40;99.90
16970;DHT22;8601;48.718;8.992;2023-03-14T00:03:39;9.30;99.90
16970;DHT22;8601;48.718;8.992;2023-03-14T00:06:07;9.30;99.90
16970;DHT22;8601;48.718;8.992;2023-03-14T00:08:38;9.40;99.90
16970;DHT22;8601;48.718;8.992;2023-03-14T00:11:08;9.30;99.90
16970;DHT22;8601;48.718;8.992;2023-03-14T00:13:38;9.20;99.90
16970;DHT22;8601;48.718;8.992;2023-03-14T00:16:07;9.20;99.90
16970;DHT22;8601;48.718;8.992;2023-03-14T00:18:35;9.20;99.90
16970;DHT22;8601;48.718;8.992;2023-03-14T00:21:03;9.20;99.90
16970;DHT22;8601;48.718;8.992;2023-03-14T00:23:32;9.20;99.90
16970;DHT22;8601;48.718;8.992;2023-03-14T00:26:02;9.20;99.90
16970;DHT22;8601;48.718;8.992;2023-03-14T00:28:30;9.30;99.90
16970;DHT22;8601;48.718;8.992;2023-03-14T00:30:57;9.30;99.90
16970;DHT22;8601;48.718;8.992;2023-03-14T00:33:24;9.30;99.90
16970;DHT22;8601;48.718;8.992;2023-03-14T00:35:55;9.30;99.90
16970;DHT22;8601;48.718;8.992;2023-03-14T00:38:23;9.30;99.90
16970;DHT22;8601;48.718;8.992;2023-03-14T00:40:51;9.30;99.90
16970;DHT22;8601;48.718;8.992;2023-03-14T00:43:22;9.30;99.90
16970;DHT22;8601;48.718;8.992;2023-03-14T00:45:48;9.30;99.90
16970;DHT22;8601;48.718;8.992;2023-03-14T00:48:16;9.30;99.90
16970;DHT22;8601;48.718;8.992;2023-03-14T00:50:43;9.30;99.90
16970;DHT22;8601;48.718;8.992;2023-03-14T00:53:21;9.20;99.90
16970;DHT22;8601;48.718;8.992;2023-03-14T00:55:50;9.30;99.90
16970;DHT22;8601;48.718;8.992;2023-03-14T00:58:21;9.30;99.90
16970;DHT22;8601;48.718;8.992;2023-03-14T01:00:49;9.30;99.90
16970;DHT22;8601;48.718;8.992;2023-03-14T01:03:16;9.30;99.90
16970;DHT22;8601;48.718;8.992;2023-03-14T01:05:44;9.30;99.90
16970;DHT22;8601;48.718;8.992;2023-03-14T01:08:11;9.30;99.90
16970;DHT22;8601;48.718;8.992;2023-03-14T01:10:39;9.30;99.90
16970;DHT22;8601;48.718;8.992;2023-03-14T01:13:09;9.30;99.90
16970;DHT22;8601;48.718;8.992;2023-03-14T01:15:37;9.20;99.90
16970;DHT22;8601;48.718;8.992;2023-03-14T01:18:04;9.20;99.90
16970;DHT22;8601;48.718;8.992;2023-03-14T01:20:31;9.20;99.90
16970;DHT22;8601;48.718;8.992;2023-03-14T01:23:01;9.20;99.90
16970;DHT22;8601;48.718;8.992;2023-03-14T01:25:32;9.20;99.90
16970;DHT22;8601;48.718;8.992;2023-03-14T01:28:00;9.20;99.90
16970;DHT22;8601;48.718;8.992;2023-03-14T01:30:28;9.20;99.90
16970;DHT22;8601;48.718;8.992;2023-03-14T01:32:56;9.30;99.90
16970;DHT22;8601;48.718;8.992;2023-03-14T01:35:25;9.30;99.90
16970;DHT22;8601;48.718;8.992;2023-03-14T01:37:53;9.20;99.90
16970;DHT22;8601;48.718;8.992;2023-03-14T01:40:21;9.20;99.90
16970;DHT22;8601;48.718;8.992;2023-03-14T01:42:56;9.30;99.90
16970;DHT22;8601;48.718;8.992;2023-03-14T01:48:57;9.20;99.90
16970;DHT22;8601;48.718;8.992;2023-03-14T01:51:30;9.20;99.90
16970;DHT22;8601;48.718;8.992;2023-03-14T01:54:04;9.20;99.90
16970;DHT22;8601;48.718;8.992;2023-03-14T01:56:35;9.20;99.90
16970;DHT22;8601;48.718;8.992;2023-03-14T01:59:08;9.20;99.90
16970;DHT22;8601;48.718;8.992;2023-03-14T02:01:36;9.10;99.90
16970;DHT22;8601;48.718;8.992;2023-03-14T02:04:05;9.10;99.90
16970;DHT22;8601;48.718;8.992;2023-03-14T02:06:39;9.10;99.90
16970;DHT22;8601;48.718;8.992;2023-03-14T02:09:07;9.10;99.90
16970;DHT22;8601;48.718;8.992;2023-03-14T02:11:36;9.10;99.90
16970;DHT22;8601;48.718;8.992;2023-03-14T02:14:04;9.00;99.90
16970;DHT22;8601;48.718;8.992;2023-03-14T02:16:31;9.10;99.90
16970;DHT22;8601;48.718;8.992;2023-03-14T02:18:59;9.00;99.90
16970;DHT22;8601;48.718;8.992;2023-03-14T02:25:45;9.00;99.90
16970;DHT22;8601;48.718;8.992;2023-03-14T02:28:52;9.00;99.90
16970;DHT22;8601;48.718;8.992;2023-03-14T02:35:22;9.00;99.90
16970;DHT22;8601;48.718;8.992;2023-03-14T02:38:41;9.00;99.90
16970;DHT22;8601;48.718;8.992;2023-03-14T02:41:37;8.90;99.90
16970;DHT22;8601;48.718;8.992;2023-03-14T02:44:18;9.00;99.90
16970;DHT22;8601;48.718;8.992;2023-03-14T02:47:15;8.90;99.90
16970;DHT22;8601;48.718;8.992;2023-03-14T02:50:01;8.90;99.90
16970;DHT22;8601;48.718;8.992;2023-03-14T02:52:35;8.90;99.90
16970;DHT22;8601;48.718;8.992;2023-03-14T02:55:07;8.90;99.90
16970;DHT22;8601;48.718;8.992;2023-03-14T02:57:36;8.90;99.90
16970;DHT22;8601;48.718;8.992;2023-03-14T03:00:24;8.90;99.90
16970;DHT22;8601;48.718;8.992;2023-03-14T03:03:00;8.90;99.90
16970;DHT22;8601;48.718;8.992;2023-03-14T03:05:27;8.90;99.90
16970;DHT22;8601;48.718;8.992;2023-03-14T03:08:29;8.90;99.90
16970;DHT22;8601;48.718;8.992;2023-03-14T03:11:24;8.90;99.90
16970;DHT22;8601;48.718;8.992;2023-03-14T03:13:59;8.90;99.90
16970;DHT22;8601;48.718;8.992;2023-03-14T03:16:28;8.90;99.90
16970;DHT22;8601;48.718;8.992;2023-03-14T03:18:56;8.90;99.90
16970;DHT22;8601;48.718;8.992;2023-03-14T03:21:32;8.80;99.90
16970;DHT22;8601;48.718;8.992;2023-03-14T03:27:12;8.80;99.90
16970;DHT22;8601;48.718;8.992;2023-03-14T03:29:39;8.80;99.90
16970;DHT22;8601;48.718;8.992;2023-03-14T03:32:08;8.70;99.90
16970;DHT22;8601;48.718;8.992;2023-03-14T03:34:35;8.70;99.90
16970;DHT22;8601;48.718;8.992;2023-03-14T03:37:03;8.70;99.90
16970;DHT22;8601;48.718;8.992;2023-03-14T03:39:30;8.70;99.90
16970;DHT22;8601;48.718;8.992;2023-03-14T03:41:57;8.60;99.90
16970;DHT22;8601;48.718;8.992;2023-03-14T03:44:25;8.70;99.90
16970;DHT22;8601;48.718;8.992;2023-03-14T03:46:52;8.60;99.90
16970;DHT22;8601;48.718;8.992;2023-03-14T03:49:21;8.60;99.90
16970;DHT22;8601;48.718;8.992;2023-03-14T03:51:49;8.60;99.90
16970;DHT22;8601;48.718;8.992;2023-03-14T03:54:17;8.60;99.90
16970;DHT22;8601;48.718;8.992;2023-03-14T03:56:45;8.60;99.90
16970;DHT22;8601;48.718;8.992;2023-03-14T03:59:12;8.60;99.90
16970;DHT22;8601;48.718;8.992;2023-03-14T04:01:39;8.50;99.90
16970;DHT22;8601;48.718;8.992;2023-03-14T04:04:09;8.50;99.90
16970;DHT22;8601;48.718;8.992;2023-03-14T04:06:38;8.50;99.90
16970;DHT22;8601;48.718;8.992;2023-03-14T04:09:07;8.50;99.90
16970;DHT22;8601;48.718;8.992;2023-03-14T04:11:37;8.50;99.90
16970;DHT22;8601;48.718;8.992;2023-03-14T04:14:07;8.50;99.90
16970;DHT22;8601;48.718;8.992;2023-03-14T04:16:34;8.40;99.90
16970;DHT22;8601;48.718;8.992;2023-03-14T04:19:02;8.50;99.90
16970;DHT22;8601;48.718;8.992;2023-03-14T04:21:29;8.40;99.90
16970;DHT22;8601;48.718;8.992;2023-03-14T04:23:58;8.50;99.90
16970;DHT22;8601;48.718;8.992;2023-03-14T04:26:25;8.40;99.90
16970;DHT22;8601;48.718;8.992;2023-03-14T04:28:53;8.40;99.90
16970;DHT22;8601;48.718;8.992;2023-03-14T04:31:21;8.40;99.90
16970;DHT22;8601;48.718;8.992;2023-03-14T04:33:48;8.40;99.90
16970;DHT22;8601;48.718;8.992;2023-03-14T04:36:15;8.40;99.90
16970;DHT22;8601;48.718;8.992;2023-03-14T04:38:43;8.50;99.90
16970;DHT22;8601;48.718;8.992;2023-03-14T04:41:14;8.40;99.90
16970;DHT22;8601;48.718;8.992;2023-03-14T04:43:41;8.50;99.90
16970;DHT22;8601;48.718;8.992;2023-03-14T04:46:08;8.50;99.90
16970;DHT22;8601;48.718;8.992;2023-03-14T04:48:35;8.40;99.90
16970;DHT22;8601;48.718;8.992;2023-03-14T04:51:03;8.40;99.90
16970;DHT22;8601;48.718;8.992;2023-03-14T04:53:30;8.50;99.90
16970;DHT22;8601;48.718;8.992;2023-03-14T04:55:57;8.40;99.90
16970;DHT22;8601;48.718;8.992;2023-03-14T04:58:26;8.40;99.90
16970;DHT22;8601;48.718;8.992;2023-03-14T05:00:54;8.40;99.90
16970;DHT22;8601;48.718;8.992;2023-03-14T05:03:21;8.30;99.90
16970;DHT22;8601;48.718;8.992;2023-03-14T05:05:48;8.40;99.90
16970;DHT22;8601;48.718;8.992;2023-03-14T05:08:15;8.40;99.90
16970;DHT22;8601;48.718;8.992;2023-03-14T05:10:42;8.40;99.90
16970;DHT22;8601;48.718;8.992;2023-03-14T05:13:10;8.40;99.90
16970;DHT22;8601;48.718;8.992;2023-03-14T05:15:38;8.40;99.90
16970;DHT22;8601;48.718;8.992;2023-03-14T05:18:05;8.30;99.90
16970;DHT22;8601;48.718;8.992;2023-03-14T05:20:33;8.30;99.90
16970;DHT22;8601;48.718;8.992;2023-03-14T05:23:01;8.30;99.90
16970;DHT22;8601;48.718;8.992;2023-03-14T05:25:28;8.30;99.90
16970;DHT22;8601;48.718;8.992;2023-03-14T05:27:55;8.40;99.90
16970;DHT22;8601;48.718;8.992;2023-03-14T05:30:22;8.40;99.90
16970;DHT22;8601;48.718;8.992;2023-03-14T05:32:51;8.40;99.90
16970;DHT22;8601;48.718;8.992;2023-03-14T05:35:25;8.40;99.90
16970;DHT22;8601;48.718;8.992;2023-03-14T05:37:51;8.40;99.90
16970;DHT22;8601;48.718;8.992;2023-03-14T05:40:18;8.40;99.90
16970;DHT22;8601;48.718;8.992;2023-03-14T05:42:46;8.40;99.90
16970;DHT22;8601;48.718;8.992;2023-03-14T05:45:13;8.50;99.90
16970;DHT22;8601;48.718;8.992;2023-03-14T05:47:40;8.50;99.90
16970;DHT22;8601;48.718;8.992;2023-03-14T05:50:10;8.50;99.90
16970;DHT22;8601;48.718;8.992;2023-03-14T05:52:37;8.50;99.90
16970;DHT22;8601;48.718;8.992;2023-03-14T05:55:05;8.50;99.90
16970;DHT22;8601;48.718;8.992;2023-03-14T05:57:32;8.50;99.90
16970;DHT22;8601;48.718;8.992;2023-03-14T05:59:59;8.50;99.90
16970;DHT22;8601;48.718;8.992;2023-03-14T06:02:26;8.50;99.90
16970;DHT22;8601;48.718;8.992;2023-03-14T06:04:53;8.50;99.90
16970;DHT22;8601;48.718;8.992;2023-03-14T06:07:23;8.50;99.90
16970;DHT22;8601;48.718;8.992;2023-03-14T06:09:50;8.50;99.90
16970;DHT22;8601;48.718;8.992;2023-03-14T06:12:17;8.50;99.90
16970;DHT22;8601;48.718;8.992;2023-03-14T06:14:46;8.60;99.90
16970;DHT22;8601;48.718;8.992;2023-03-14T06:17:13;8.50;99.90
16970;DHT22;8601;48.718;8.992;2023-03-14T06:19:40;8.50;99.90
16970;DHT22;8601;48.718;8.992;2023-03-14T06:22:09;8.50;99.90
16970;DHT22;8601;48.718;8.992;2023-03-14T06:24:38;8.50;99.90
16970;DHT22;8601;48.718;8.992;2023-03-14T06:27:04;8.50;99.90
16970;DHT22;8601;48.718;8.992;2023-03-14T06:29:31;8.50;99.90
16970;DHT22;8601;48.718;8.992;2023-03-14T06:31:58;8.50;99.90
16970;DHT22;8601;48.718;8.992;2023-03-14T06:34:25;8.50;99.90
16970;DHT22;8601;48.718;8.992;2023-03-14T06:36:55;8.50;99.90
16970;DHT22;8601;48.718;8.992;2023-03-14T06:39:24;8.60;99.90
16970;DHT22;8601;48.718;8.992;2023-03-14T06:41:52;8.60;99.90
16970;DHT22;8601;48.718;8.992;2023-03-14T06:44:19;8.60;99.90
16970;DHT22;8601;48.718;8.992;2023-03-14T06:46:46;8.70;99.90
16970;DHT22;8601;48.718;8.992;2023-03-14T06:49:13;8.70;99.90
16970;DHT22;8601;48.718;8.992;2023-03-14T06:51:40;8.70;99.90
16970;DHT22;8601;48.718;8.992;2023-03-14T06:54:07;8.70;99.90
16970;DHT22;8601;48.718;8.992;2023-03-14T06:56:36;8.80;99.90
16970;DHT22;8601;48.718;8.992;2023-03-14T06:59:07;8.80;99.90
16970;DHT22;8601;48.718;8.992;2023-03-14T07:01:34;8.80;99.90
16970;DHT22;8601;48.718;8.992;2023-03-14T07:04:01;8.80;99.90
16970;DHT22;8601;48.718;8.992;2023-03-14T07:06:36;8.90;99.90
16970;DHT22;8601;48.718;8.992;2023-03-14T07:09:05;8.90;99.90
16970;DHT22;8601;48.718;8.992;2023-03-14T07:11:32;8.90;99.90
16970;DHT22;8601;48.718;8.992;2023-03-14T07:14:11;9.10;99.90
16970;DHT22;8601;48.718;8.992;2023-03-14T07:16:38;9.10;99.90
16970;DHT22;8601;48.718;8.992;2023-03-14T07:19:05;9.10;99.90
16970;DHT22;8601;48.718;8.992;2023-03-14T07:21:32;9.10;99.90
16970;DHT22;8601;48.718;8.992;2023-03-14T07:24:00;9.20;99.90
16970;DHT22;8601;48.718;8.992;2023-03-14T07:26:27;9.20;99.90
16970;DHT22;8601;48.718;8.992;2023-03-14T07:28:55;9.20;99.90
16970;DHT22;8601;48.718;8.992;2023-03-14T07:31:24;9.20;99.90
16970;DHT22;8601;48.718;8.992;2023-03-14T07:33:51;9.30;99.90
16970;DHT22;8601;48.718;8.992;2023-03-14T07:36:17;9.30;99.90
16970;DHT22;8601;48.718;8.992;2023-03-14T07:38:44;9.30;99.90
16970;DHT22;8601;48.718;8.992;2023-03-14T07:41:12;9.40;99.90
16970;DHT22;8601;48.718;8.992;2023-03-14T07:43:39;9.50;99.90
16970;DHT22;8601;48.718;8.992;2023-03-14T07:46:06;9.60;99.90
16970;DHT22;8601;48.718;8.992;2023-03-14T07:48:34;9.70;99.90
16970;DHT22;8601;48.718;8.992;2023-03-14T07:51:01;9.70;99.90
16970;DHT22;8601;48.718;8.992;2023-03-14T07:53:29;9.80;99.90
16970;DHT22;8601;48.718;8.992;2023-03-14T07:55:57;9.80;99.90
16970;DHT22;8601;48.718;8.992;2023-03-14T07:58:23;9.90;99.90
16970;DHT22;8601;48.718;8.992;2023-03-14T08:00:52;10.00;99.90
16970;DHT22;8601;48.718;8.992;2023-03-14T08:03:19;10.00;99.90
16970;DHT22;8601;48.718;8.992;2023-03-14T08:05:49;10.10;99.90
16970;DHT22;8601;48.718;8.992;2023-03-14T08:08:16;10.20;99.90
16970;DHT22;8601;48.718;8.992;2023-03-14T08:10:43;11.00;99.90
16970;DHT22;8601;48.718;8.992;2023-03-14T08:13:11;10.50;99.90
16970;DHT22;8601;48.718;8.992;2023-03-14T08:15:39;10.40;99.90
16970;DHT22;8601;48.718;8.992;2023-03-14T08:18:06;10.40;99.90
16970;DHT22;8601;48.718;8.992;2023-03-14T08:20:33;10.40;99.90
16970;DHT22;8601;48.718;8.992;2023-03-14T08:23:08;10.50;99.90
16970;DHT22;8601;48.718;8.992;2023-03-14T08:25:35;10.60;99.90
16970;DHT22;8601;48.718;8.992;2023-03-14T08:28:02;10.70;99.90
16970;DHT22;8601;48.718;8.992;2023-03-14T08:30:29;10.70;99.90
16970;DHT22;8601;48.718;8.992;2023-03-14T08:32:58;10.60;99.90
16970;DHT22;8601;48.718;8.992;2023-03-14T08:35:26;10.60;99.90
16970;DHT22;8601;48.718;8.992;2023-03-14T08:37:53;10.60;99.90
16970;DHT22;8601;48.718;8.992;2023-03-14T08:40:22;10.50;99.90
16970;DHT22;8601;48.718;8.992;2023-03-14T08:42:49;10.70;99.90
16970;DHT22;8601;48.718;8.992;2023-03-14T08:45:17;10.60;99.90
16970;DHT22;8601;48.718;8.992;2023-03-14T08:47:44;10.50;99.90
16970;DHT22;8601;48.718;8.992;2023-03-14T08:50:12;10.50;99.90
16970;DHT22;8601;48.718;8.992;2023-03-14T08:52:39;10.60;99.90
16970;DHT22;8601;48.718;8.992;2023-03-14T08:55:07;10.70;99.90
16970;DHT22;8601;48.718;8.992;2023-03-14T08:57:37;10.60;99.90
16970;DHT22;8601;48.718;8.992;2023-03-14T09:00:07;10.40;99.90
16970;DHT22;8601;48.718;8.992;2023-03-14T09:02:37;10.30;99.90
16970;DHT22;8601;48.718;8.992;2023-03-14T09:05:05;10.20;99.90
16970;DHT22;8601;48.718;8.992;2023-03-14T09:07:32;10.10;99.90
16970;DHT22;8601;48.718;8.992;2023-03-14T09:09:59;10.00;99.90
16970;DHT22;8601;48.718;8.992;2023-03-14T09:12:26;10.00;99.90
16970;DHT22;8601;48.718;8.992;2023-03-14T09:15:00;10.00;99.90
16970;DHT22;8601;48.718;8.992;2023-03-14T09:17:27;10.00;99.90
16970;DHT22;8601;48.718;8.992;2023-03-14T09:19:56;9.90;99.90
16970;DHT22;8601;48.718;8.992;2023-03-14T09:22:31;10.00;99.90
16970;DHT22;8601;48.718;8.992;2023-03-14T09:24:59;10.10;99.90
16970;DHT22;8601;48.718;8.992;2023-03-14T09:27:27;10.10;99.90
16970;DHT22;8601;48.718;8.992;2023-03-14T09:29:56;10.20;99.90
16970;DHT22;8601;48.718;8.992;2023-03-14T09:32:24;10.00;99.90
16970;DHT22;8601;48.718;8.992;2023-03-14T09:34:51;10.00;99.90
16970;DHT22;8601;48.718;8.992;2023-03-14T09:37:18;9.90;99.90
16970;DHT22;8601;48.718;8.992;2023-03-14T09:39:47;10.00;99.90
16970;DHT22;8601;48.718;8.992;2023-03-14T09:42:17;10.00;99.90
16970;DHT22;8601;48.718;8.992;2023-03-14T09:44:53;10.00;99.90
16970;DHT22;8601;48.718;8.992;2023-03-14T09:47:23;10.10;99.90
16970;DHT22;8601;48.718;8.992;2023-03-14T09:49:51;10.20;99.90
16970;DHT22;8601;48.718;8.992;2023-03-14T09:52:28;10.20;99.90
16970;DHT22;8601;48.718;8.992;2023-03-14T09:55:02;10.30;99.90
16970;DHT22;8601;48.718;8.992;2023-03-14T09:57:32;10.30;99.90
16970;DHT22;8601;48.718;8.992;2023-03-14T10:00:03;10.40;99.90
16970;DHT22;8601;48.718;8.992;2023-03-14T10:02:43;10.70;99.90
16970;DHT22;8601;48.718;8.992;2023-03-14T10:05:15;11.10;99.90
16970;DHT22;8601;48.718;8.992;2023-03-14T10:07:44;11.00;99.90
16970;DHT22;8601;48.718;8.992;2023-03-14T10:10:15;11.00;99.90
16970;DHT22;8601;48.718;8.992;2023-03-14T10:12:45;11.20;99.90
16970;DHT22;8601;48.718;8.992;2023-03-14T10:15:15;11.50;99.90
16970;DHT22;8601;48.718;8.992;2023-03-14T10:17:51;11.50;99.90
16970;DHT22;8601;48.718;8.992;2023-03-14T10:20:31;11.50;99.90
16970;DHT22;8601;48.718;8.992;2023-03-14T10:23:04;11.20;99.90
16970;DHT22;8601;48.718;8.992;2023-03-14T10:25:33;11.10;99.90
16970;DHT22;8601;48.718;8.992;2023-03-14T10:28:00;11.00;99.90
16970;DHT22;8601;48.718;8.992;2023-03-14T10:30:38;11.00;99.90
16970;DHT22;8601;48.718;8.992;2023-03-14T10:33:18;10.90;99.90
16970;DHT22;8601;48.718;8.992;2023-03-14T10:35:51;11.00;99.90
16970;DHT22;8601;48.718;8.992;2023-03-14T10:38:19;11.00;99.90
16970;DHT22;8601;48.718;8.992;2023-03-14T10:40:51;10.90;99.90
16970;DHT22;8601;48.718;8.992;2023-03-14T10:43:22;10.80;99.90
16970;DHT22;8601;48.718;8.992;2023-03-14T10:45:55;10.70;99.90
16970;DHT22;8601;48.718;8.992;2023-03-14T10:48:30;10.70;99.90
16970;DHT22;8601;48.718;8.992;2023-03-14T10:51:03;10.60;99.90
16970;DHT22;8601;48.718;8.992;2023-03-14T10:53:40;10.50;99.90
16970;DHT22;8601;48.718;8.992;2023-03-14T10:56:12;10.40;99.90
16970;DHT22;8601;48.718;8.992;2023-03-14T10:58:41;10.30;99.90
16970;DHT22;8601;48.718;8.992;2023-03-14T11:01:22;10.20;99.90
16970;DHT22;8601;48.718;8.992;2023-03-14T11:03:57;10.20;99.90
16970;DHT22;8601;48.718;8.992;2023-03-14T11:06:32;10.20;99.90
16970;DHT22;8601;48.718;8.992;2023-03-14T11:09:06;10.20;99.90
16970;DHT22;8601;48.718;8.992;2023-03-14T11:11:36;10.20;99.90
16970;DHT22;8601;48.718;8.992;2023-03-14T11:14:12;10.20;99.90
16970;DHT22;8601;48.718;8.992;2023-03-14T11:16:52;10.10;99.90
16970;DHT22;8601;48.718;8.992;2023-03-14T11:19:50;10.10;99.90
16970;DHT22;8601;48.718;8.992;2023-03-14T11:22:24;10.00;99.90
16970;DHT22;8601;48.718;8.992;2023-03-14T11:25:04;9.90;99.90
16970;DHT22;8601;48.718;8.992;2023-03-14T11:27:40;9.80;99.90
16970;DHT22;8601;48.718;8.992;2023-03-14T11:30:18;9.70;99.90
16970;DHT22;8601;48.718;8.992;2023-03-14T11:32:57;9.70;99.90
16970;DHT22;8601;48.718;8.992;2023-03-14T11:35:34;9.70;99.90
16970;DHT22;8601;48.718;8.992;2023-03-14T11:38:12;9.70;99.90
16970;DHT22;8601;48.718;8.992;2023-03-14T11:40:41;9.70;99.90
16970;DHT22;8601;48.718;8.992;2023-03-14T11:43:13;9.70;99.90
16970;DHT22;8601;48.718;8.992;2023-03-14T11:45:43;9.70;99.90
16970;DHT22;8601;48.718;8.992;2023-03-14T11:48:24;9.70;99.90
16970;DHT22;8601;48.718;8.992;2023-03-14T11:50:57;9.70;99.90
16970;DHT22;8601;48.718;8.992;2023-03-14T11:53:39;9.70;99.90
16970;DHT22;8601;48.718;8.992;2023-03-14T11:56:13;9.80;99.90
16970;DHT22;8601;48.718;8.992;2023-03-14T11:58:48;9.80;99.90
16970;DHT22;8601;48.718;8.992;2023-03-14T12:01:18;9.70;99.90
16970;DHT22;8601;48.718;8.992;2023-03-14T12:03:52;9.70;99.90
16970;DHT22;8601;48.718;8.992;2023-03-14T12:06:28;9.50;99.90
16970;DHT22;8601;48.718;8.992;2023-03-14T12:09:02;9.50;99.90
16970;DHT22;8601;48.718;8.992;2023-03-14T12:11:36;9.50;99.90
16970;DHT22;8601;48.718;8.992;2023-03-14T12:14:18;9.50;99.90
16970;DHT22;8601;48.718;8.992;2023-03-14T12:16:46;9.50;99.90
16970;DHT22;8601;48.718;8.992;2023-03-14T12:19:32;9.50;99.90
16970;DHT22;8601;48.718;8.992;2023-03-14T12:25:02;9.70;99.90
16970;DHT22;8601;48.718;8.992;2023-03-14T12:30:40;10.70;99.90
16970;DHT22;8601;48.718;8.992;2023-03-14T12:33:29;10.30;99.90
16970;DHT22;8601;48.718;8.992;2023-03-14T12:36:17;10.20;99.90
16970;DHT22;8601;48.718;8.992;2023-03-14T12:38:55;9.70;99.90
16970;DHT22;8601;48.718;8.992;2023-03-14T12:41:28;9.50;99.90
16970;DHT22;8601;48.718;8.992;2023-03-14T12:47:41;9.40;99.90
16970;DHT22;8601;48.718;8.992;2023-03-14T12:50:19;9.50;98.90
16970;DHT22;8601;48.718;8.992;2023-03-14T12:53:22;9.90;98.10
16970;DHT22;8601;48.718;8.992;2023-03-14T12:55:58;9.30;95.60
16970;DHT22;8601;48.718;8.992;2023-03-14T12:58:31;9.30;95.30
16970;DHT22;8601;48.718;8.992;2023-03-14T13:01:04;9.00;95.90
16970;DHT22;8601;48.718;8.992;2023-03-14T13:03:45;9.00;95.80
16970;DHT22;8601;48.718;8.992;2023-03-14T13:06:12;8.90;94.40
16970;DHT22;8601;48.718;8.992;2023-03-14T13:08:41;8.90;93.80
16970;DHT22;8601;48.718;8.992;2023-03-14T13:11:12;9.10;92.00
16970;DHT22;8601;48.718;8.992;2023-03-14T13:13:46;9.20;91.90
16970;DHT22;8601;48.718;8.992;2023-03-14T13:16:17;9.10;91.60
16970;DHT22;8601;48.718;8.992;2023-03-14T13:18:45;9.30;91.00
16970;DHT22;8601;48.718;8.992;2023-03-14T13:21:17;9.20;90.60
16970;DHT22;8601;48.718;8.992;2023-03-14T13:23:56;9.20;91.10
16970;DHT22;8601;48.718;8.992;2023-03-14T13:26:32;9.00;91.00
16970;DHT22;8601;48.718;8.992;2023-03-14T13:28:59;8.80;90.90
16970;DHT22;8601;48.718;8.992;2023-03-14T13:31:26;8.70;89.40
16970;DHT22;8601;48.718;8.992;2023-03-14T13:33:59;8.40;88.10
16970;DHT22;8601;48.718;8.992;2023-03-14T13:36:27;8.40;90.10
16970;DHT22;8601;48.718;8.992;2023-03-14T13:38:58;8.30;90.20
16970;DHT22;8601;48.718;8.992;2023-03-14T13:41:27;8.20;90.50
16970;DHT22;8601;48.718;8.992;2023-03-14T13:44:01;8.20;90.10
16970;DHT22;8601;48.718;8.992;2023-03-14T13:46:29;8.20;90.10
16970;DHT22;8601;48.718;8.992;2023-03-14T13:48:58;8.20;89.50
16970;DHT22;8601;48.718;8.992;2023-03-14T13:51:27;8.20;89.10
16970;DHT22;8601;48.718;8.992;2023-03-14T13:53:57;8.30;87.00
16970;DHT22;8601;48.718;8.992;2023-03-14T13:56:28;8.30;85.20
16970;DHT22;8601;48.718;8.992;2023-03-14T13:58:56;8.30;85.80
16970;DHT22;8601;48.718;8.992;2023-03-14T14:01:25;8.30;82.30
16970;DHT22;8601;48.718;8.992;2023-03-14T14:03:55;8.10;81.40
16970;DHT22;8601;48.718;8.992;2023-03-14T14:06:27;8.10;81.00
16970;DHT22;8601;48.718;8.992;2023-03-14T14:08:55;8.00;78.60
16970;DHT22;8601;48.718;8.992;2023-03-14T14:11:35;8.00;77.60
16970;DHT22;8601;48.718;8.992;2023-03-14T14:14:03;8.00;79.40
16970;DHT22;8601;48.718;8.992;2023-03-14T14:16:31;8.00;80.60
16970;DHT22;8601;48.718;8.992;2023-03-14T14:19:00;8.00;78.10
16970;DHT22;8601;48.718;8.992;2023-03-14T14:21:27;8.00;76.90
16970;DHT22;8601;48.718;8.992;2023-03-14T14:23:58;7.90;78.30
16970;DHT22;8601;48.718;8.992;2023-03-14T14:26:26;7.90;78.30
16970;DHT22;8601;48.718;8.992;2023-03-14T14:29:03;7.90;79.70
16970;DHT22;8601;48.718;8.992;2023-03-14T14:31:31;7.90;79.50
16970;DHT22;8601;48.718;8.992;2023-03-14T14:34:00;7.80;78.80
16970;DHT22;8601;48.718;8.992;2023-03-14T14:36:30;7.70;77.20
16970;DHT22;8601;48.718;8.992;2023-03-14T14:38:59;7.80;80.00
16970;DHT22;8601;48.718;8.992;2023-03-14T14:41:32;7.80;79.80
16970;DHT22;8601;48.718;8.992;2023-03-14T14:44:04;7.80;79.10
16970;DHT22;8601;48.718;8.992;2023-03-14T14:46:34;7.80;78.90
16970;DHT22;8601;48.718;8.992;2023-03-14T14:49:06;7.70;79.60
16970;DHT22;8601;48.718;8.992;2023-03-14T14:51:41;7.80;80.40
16970;DHT22;8601;48.718;8.992;2023-03-14T14:54:12;7.80;79.70
16970;DHT22;8601;48.718;8.992;2023-03-14T14:56:44;7.90;79.70
16970;DHT22;8601;48.718;8.992;2023-03-14T14:59:22;7.90;79.30
16970;DHT22;8601;48.718;8.992;2023-03-14T15:01:50;8.10;77.70
16970;DHT22;8601;48.718;8.992;2023-03-14T15:04:22;8.10;77.70
16970;DHT22;8601;48.718;8.992;2023-03-14T15:06:50;8.10;78.20
16970;DHT22;8601;48.718;8.992;2023-03-14T15:09:19;8.40;79.70
16970;DHT22;8601;48.718;8.992;2023-03-14T15:11:46;8.40;79.40
16970;DHT22;8601;48.718;8.992;2023-03-14T15:14:13;8.30;78.70
16970;DHT22;8601;48.718;8.992;2023-03-14T15:16:42;8.20;78.10
16970;DHT22;8601;48.718;8.992;2023-03-14T15:19:12;8.30;78.40
16970;DHT22;8601;48.718;8.992;2023-03-14T15:21:40;8.90;76.70
16970;DHT22;8601;48.718;8.992;2023-03-14T15:24:09;8.90;77.20
16970;DHT22;8601;48.718;8.992;2023-03-14T15:26:36;8.60;74.90
16970;DHT22;8601;48.718;8.992;2023-03-14T15:29:03;8.50;78.00
16970;DHT22;8601;48.718;8.992;2023-03-14T15:31:33;8.40;77.40
16970;DHT22;8601;48.718;8.992;2023-03-14T15:34:02;8.30;77.60
16970;DHT22;8601;48.718;8.992;2023-03-14T15:36:31;8.20;75.10
16970;DHT22;8601;48.718;8.992;2023-03-14T15:38:59;8.20;76.50
16970;DHT22;8601;48.718;8.992;2023-03-14T15:41:27;8.20;77.40
16970;DHT22;8601;48.718;8.992;2023-03-14T15:43:56;8.20;79.10
16970;DHT22;8601;48.718;8.992;2023-03-14T15:46:23;8.00;78.10
16970;DHT22;8601;48.718;8.992;2023-03-14T15:48:51;8.00;78.50
16970;DHT22;8601;48.718;8.992;2023-03-14T15:51:19;8.00;80.10
16970;DHT22;8601;48.718;8.992;2023-03-14T15:53:47;7.90;80.10
16970;DHT22;8601;48.718;8.992;2023-03-14T15:56:22;7.90;80.40
16970;DHT22;8601;48.718;8.992;2023-03-14T15:58:58;7.90;81.20
16970;DHT22;8601;48.718;8.992;2023-03-14T16:02:04;7.80;81.20
16970;DHT22;8601;48.718;8.992;2023-03-14T16:04:44;7.70;79.50
16970;DHT22;8601;48.718;8.992;2023-03-14T16:07:13;7.70;80.60
16970;DHT22;8601;48.718;8.992;2023-03-14T16:09:40;7.80;80.50
16970;DHT22;8601;48.718;8.992;2023-03-14T16:12:08;7.80;81.30
16970;DHT22;8601;48.718;8.992;2023-03-14T16:14:36;7.80;80.40
16970;DHT22;8601;48.718;8.992;2023-03-14T16:17:12;7.90;80.00
16970;DHT22;8601;48.718;8.992;2023-03-14T16:23:01;8.00;79.90
16970;DHT22;8601;48.718;8.992;2023-03-14T16:25:37;8.00;79.80
16970;DHT22;8601;48.718;8.992;2023-03-14T16:28:08;7.90;79.50
16970;DHT22;8601;48.718;8.992;2023-03-14T16:30:37;7.80;79.90
16970;DHT22;8601;48.718;8.992;2023-03-14T16:33:04;7.80;81.10
16970;DHT22;8601;48.718;8.992;2023-03-14T16:35:34;7.80;81.40
16970;DHT22;8601;48.718;8.992;2023-03-14T16:38:03;7.70;81.70
16970;DHT22;8601;48.718;8.992;2023-03-14T16:40:31;7.80;82.00
16970;DHT22;8601;48.718;8.992;2023-03-14T16:43:08;7.70;81.80
16970;DHT22;8601;48.718;8.992;2023-03-14T16:45:46;8.60;82.40
16970;DHT22;8601;48.718;8.992;2023-03-14T16:48:17;8.20;80.50